sensor_id;sensor_type;location;lat;lon;timestamp;P1;durP1;ratioP1;P2;durP2;ratioP2
43014;SDS011;28637;50.554;7.032;2023-07-09T00:04:50;8.23;;;4.80;;
43014;SDS011;28637;50.554;7.032;2023-07-09T00:09:51;10.32;;;4.80;;
43014;SDS011;28637;50.554;7.032;2023-07-09T00:14:51;10.27;;;4.80;;
43014;SDS011;28637;50.554;7.032;2023-07-09T00:19:52;9.97;;;4.50;;
43014;SDS011;28637;50.554;7.032;2023-07-09T00:24:53;8.70;;;4.73;;
43014;SDS011;28637;50.554;7.032;2023-07-09T00:29:56;9.85;;;4.50;;
43014;SDS011;28637;50.554;7.032;2023-07-09T00:34:57;8.03;;;4.83;;
43014;SDS011;28637;50.554;7.032;2023-07-09T00:39:58;6.80;;;5.03;;
43014;SDS011;28637;50.554;7.032;2023-07-09T00:44:58;7.90;;;4.53;;
43014;SDS011;28637;50.554;7.032;2023-07-09T00:50:09;9.27;;;4.70;;
43014;SDS011;28637;50.554;7.032;2023-07-09T00:55:30;11.18;;;4.75;;
43014;SDS011;28637;50.554;7.032;2023-07-09T01:00:55;9.70;;;4.70;;
43014;SDS011;28637;50.554;7.032;2023-07-09T01:05:55;7.07;;;4.85;;
43014;SDS011;28637;50.554;7.032;2023-07-09T01:10:58;7.65;;;4.57;;
43014;SDS011;28637;50.554;7.032;2023-07-09T01:21:02;9.77;;;4.53;;
43014;SDS011;28637;50.554;7.032;2023-07-09T01:26:07;8.95;;;4.63;;
43014;SDS011;28637;50.554;7.032;2023-07-09T01:31:08;6.70;;;4.60;;
43014;SDS011;28637;50.554;7.032;2023-07-09T01:41:16;9.45;;;4.82;;
43014;SDS011;28637;50.554;7.032;2023-07-09T01:51:18;8.77;;;4.93;;
43014;SDS011;28637;50.554;7.032;2023-07-09T01:56:18;8.17;;;4.87;;
43014;SDS011;28637;50.554;7.032;2023-07-09T02:01:19;13.47;;;4.60;;
43014;SDS011;28637;50.554;7.032;2023-07-09T02:06:20;9.50;;;5.20;;
43014;SDS011;28637;50.554;7.032;2023-07-09T02:11:24;10.88;;;4.88;;
43014;SDS011;28637;50.554;7.032;2023-07-09T02:16:25;8.02;;;5.22;;
43014;SDS011;28637;50.554;7.032;2023-07-09T02:21:25;10.00;;;5.10;;
43014;SDS011;28637;50.554;7.032;2023-07-09T02:26:29;9.38;;;5.25;;
43014;SDS011;28637;50.554;7.032;2023-07-09T02:31:30;7.30;;;5.23;;
43014;SDS011;28637;50.554;7.032;2023-07-09T02:36:31;8.17;;;4.77;;
43014;SDS011;28637;50.554;7.032;2023-07-09T02:41:31;8.77;;;5.10;;
43014;SDS011;28637;50.554;7.032;2023-07-09T02:46:32;8.70;;;5.10;;
43014;SDS011;28637;50.554;7.032;2023-07-09T02:51:33;7.65;;;4.70;;
43014;SDS011;28637;50.554;7.032;2023-07-09T02:56:34;7.07;;;4.70;;
43014;SDS011;28637;50.554;7.032;2023-07-09T03:01:35;7.82;;;4.85;;
43014;SDS011;28637;50.554;7.032;2023-07-09T03:06:36;8.63;;;4.83;;
43014;SDS011;28637;50.554;7.032;2023-07-09T03:11:37;8.00;;;4.77;;
43014;SDS011;28637;50.554;7.032;2023-07-09T03:16:37;9.10;;;5.25;;
43014;SDS011;28637;50.554;7.032;2023-07-09T03:21:38;7.33;;;4.97;;
43014;SDS011;28637;50.554;7.032;2023-07-09T03:26:39;9.23;;;4.93;;
43014;SDS011;28637;50.554;7.032;2023-07-09T03:31:39;9.50;;;5.30;;
43014;SDS011;28637;50.554;7.032;2023-07-09T03:36:40;8.63;;;5.80;;
43014;SDS011;28637;50.554;7.032;2023-07-09T03:41:41;8.07;;;5.10;;
43014;SDS011;28637;50.554;7.032;2023-07-09T03:46:42;9.70;;;5.03;;
43014;SDS011;28637;50.554;7.032;2023-07-09T03:51:42;8.33;;;5.30;;
43014;SDS011;28637;50.554;7.032;2023-07-09T03:56:43;8.97;;;4.90;;
43014;SDS011;28637;50.554;7.032;2023-07-09T04:01:44;10.40;;;5.30;;
43014;SDS011;28637;50.554;7.032;2023-07-09T04:11:46;8.80;;;4.87;;
43014;SDS011;28637;50.554;7.032;2023-07-09T04:16:47;8.97;;;5.03;;
43014;SDS011;28637;50.554;7.032;2023-07-09T04:21:48;8.50;;;4.70;;
43014;SDS011;28637;50.554;7.032;2023-07-09T04:26:48;8.97;;;5.00;;
43014;SDS011;28637;50.554;7.032;2023-07-09T04:31:49;7.10;;;4.53;;
43014;SDS011;28637;50.554;7.032;2023-07-09T04:36:49;8.00;;;5.00;;
43014;SDS011;28637;50.554;7.032;2023-07-09T04:41:50;6.40;;;4.87;;
43014;SDS011;28637;50.554;7.032;2023-07-09T04:46:51;8.57;;;5.13;;
43014;SDS011;28637;50.554;7.032;2023-07-09T04:51:51;8.17;;;5.17;;
43014;SDS011;28637;50.554;7.032;2023-07-09T04:56:52;9.17;;;5.07;;
43014;SDS011;28637;50.554;7.032;2023-07-09T05:01:53;6.85;;;4.80;;
43014;SDS011;28637;50.554;7.032;2023-07-09T05:06:54;7.45;;;4.68;;
43014;SDS011;28637;50.554;7.032;2023-07-09T05:11:54;9.17;;;5.07;;
43014;SDS011;28637;50.554;7.032;2023-07-09T05:16:55;7.83;;;5.50;;
43014;SDS011;28637;50.554;7.032;2023-07-09T05:21:55;8.60;;;4.87;;
43014;SDS011;28637;50.554;7.032;2023-07-09T05:26:56;7.70;;;5.03;;
43014;SDS011;28637;50.554;7.032;2023-07-09T05:31:57;9.00;;;5.07;;
43014;SDS011;28637;50.554;7.032;2023-07-09T05:36:58;7.93;;;4.80;;
43014;SDS011;28637;50.554;7.032;2023-07-09T05:41:58;6.10;;;4.80;;
43014;SDS011;28637;50.554;7.032;2023-07-09T05:46:59;7.37;;;5.20;;
43014;SDS011;28637;50.554;7.032;2023-07-09T05:51:59;7.60;;;4.90;;
43014;SDS011;28637;50.554;7.032;2023-07-09T05:57:00;7.27;;;4.63;;
43014;SDS011;28637;50.554;7.032;2023-07-09T06:02:00;7.70;;;4.97;;
43014;SDS011;28637;50.554;7.032;2023-07-09T06:07:02;6.70;;;5.00;;
43014;SDS011;28637;50.554;7.032;2023-07-09T06:12:04;5.68;;;4.70;;
43014;SDS011;28637;50.554;7.032;2023-07-09T06:17:05;9.80;;;5.57;;
43014;SDS011;28637;50.554;7.032;2023-07-09T06:22:06;9.20;;;4.93;;
43014;SDS011;28637;50.554;7.032;2023-07-09T06:27:06;7.65;;;4.85;;
43014;SDS011;28637;50.554;7.032;2023-07-09T06:32:07;7.53;;;5.18;;
43014;SDS011;28637;50.554;7.032;2023-07-09T06:37:08;9.20;;;5.10;;
43014;SDS011;28637;50.554;7.032;2023-07-09T06:42:09;7.85;;;4.78;;
43014;SDS011;28637;50.554;7.032;2023-07-09T06:47:09;8.50;;;5.13;;
43014;SDS011;28637;50.554;7.032;2023-07-09T06:52:11;7.72;;;5.05;;
43014;SDS011;28637;50.554;7.032;2023-07-09T06:57:11;6.45;;;4.65;;
43014;SDS011;28637;50.554;7.032;2023-07-09T07:02:12;7.68;;;4.90;;
43014;SDS011;28637;50.554;7.032;2023-07-09T07:12:22;7.73;;;5.07;;
43014;SDS011;28637;50.554;7.032;2023-07-09T07:17:25;8.75;;;4.68;;
43014;SDS011;28637;50.554;7.032;2023-07-09T07:27:26;6.07;;;4.57;;
43014;SDS011;28637;50.554;7.032;2023-07-09T07:32:27;5.85;;;3.88;;
43014;SDS011;28637;50.554;7.032;2023-07-09T07:37:27;8.43;;;4.30;;
43014;SDS011;28637;50.554;7.032;2023-07-09T07:42:28;8.60;;;4.10;;
43014;SDS011;28637;50.554;7.032;2023-07-09T07:47:29;16.27;;;4.40;;
43014;SDS011;28637;50.554;7.032;2023-07-09T07:52:30;9.32;;;3.92;;
43014;SDS011;28637;50.554;7.032;2023-07-09T07:57:30;7.40;;;3.72;;
43014;SDS011;28637;50.554;7.032;2023-07-09T08:02:31;6.50;;;3.72;;
43014;SDS011;28637;50.554;7.032;2023-07-09T08:07:32;7.60;;;3.53;;
43014;SDS011;28637;50.554;7.032;2023-07-09T08:12:32;4.47;;;3.33;;
43014;SDS011;28637;50.554;7.032;2023-07-09T08:17:33;6.63;;;3.47;;
43014;SDS011;28637;50.554;7.032;2023-07-09T08:22:34;5.90;;;3.60;;
43014;SDS011;28637;50.554;7.032;2023-07-09T08:27:34;7.43;;;3.60;;
43014;SDS011;28637;50.554;7.032;2023-07-09T08:32:35;5.35;;;3.15;;
43014;SDS011;28637;50.554;7.032;2023-07-09T08:37:36;4.82;;;3.13;;
43014;SDS011;28637;50.554;7.032;2023-07-09T08:48:27;8.48;;;3.10;;
43014;SDS011;28637;50.554;7.032;2023-07-09T08:53:36;7.80;;;3.15;;
43014;SDS011;28637;50.554;7.032;2023-07-09T08:58:47;8.48;;;3.20;;
43014;SDS011;28637;50.554;7.032;2023-07-09T09:03:53;5.32;;;3.20;;
43014;SDS011;28637;50.554;7.032;2023-07-09T09:09:04;7.53;;;3.40;;
43014;SDS011;28637;50.554;7.032;2023-07-09T09:19:34;6.25;;;3.20;;
43014;SDS011;28637;50.554;7.032;2023-07-09T09:24:54;7.28;;;3.38;;
43014;SDS011;28637;50.554;7.032;2023-07-09T09:30:02;6.60;;;3.30;;
43014;SDS011;28637;50.554;7.032;2023-07-09T09:35:11;5.30;;;3.20;;
43014;SDS011;28637;50.554;7.032;2023-07-09T09:40:17;4.80;;;3.25;;
43014;SDS011;28637;50.554;7.032;2023-07-09T09:45:26;4.70;;;2.80;;
43014;SDS011;28637;50.554;7.032;2023-07-09T09:50:39;6.28;;;3.03;;
43014;SDS011;28637;50.554;7.032;2023-07-09T09:55:40;5.18;;;2.92;;
43014;SDS011;28637;50.554;7.032;2023-07-09T10:00:46;6.70;;;2.90;;
43014;SDS011;28637;50.554;7.032;2023-07-09T10:05:57;6.50;;;2.95;;
43014;SDS011;28637;50.554;7.032;2023-07-09T10:11:17;5.80;;;2.95;;
43014;SDS011;28637;50.554;7.032;2023-07-09T10:16:25;8.45;;;2.88;;
43014;SDS011;28637;50.554;7.032;2023-07-09T10:21:45;4.82;;;3.00;;
43014;SDS011;28637;50.554;7.032;2023-07-09T10:27:52;4.03;;;3.00;;
43014;SDS011;28637;50.554;7.032;2023-07-09T10:38:07;7.30;;;2.95;;
43014;SDS011;28637;50.554;7.032;2023-07-09T10:43:35;5.68;;;2.80;;
43014;SDS011;28637;50.554;7.032;2023-07-09T10:48:40;7.00;;;3.05;;
43014;SDS011;28637;50.554;7.032;2023-07-09T10:53:48;4.50;;;2.83;;
43014;SDS011;28637;50.554;7.032;2023-07-09T11:09:29;8.68;;;3.13;;
43014;SDS011;28637;50.554;7.032;2023-07-09T11:14:36;6.95;;;2.95;;
43014;SDS011;28637;50.554;7.032;2023-07-09T11:19:47;5.10;;;2.85;;
43014;SDS011;28637;50.554;7.032;2023-07-09T11:24:53;6.68;;;3.05;;
43014;SDS011;28637;50.554;7.032;2023-07-09T11:35:24;5.57;;;3.10;;
43014;SDS011;28637;50.554;7.032;2023-07-09T11:40:26;3.15;;;2.65;;
43014;SDS011;28637;50.554;7.032;2023-07-09T11:45:28;6.68;;;2.80;;
43014;SDS011;28637;50.554;7.032;2023-07-09T11:50:41;5.80;;;3.20;;
43014;SDS011;28637;50.554;7.032;2023-07-09T11:55:46;4.85;;;2.63;;
43014;SDS011;28637;50.554;7.032;2023-07-09T12:00:48;6.13;;;2.67;;
43014;SDS011;28637;50.554;7.032;2023-07-09T12:05:52;6.10;;;2.92;;
43014;SDS011;28637;50.554;7.032;2023-07-09T12:10:56;6.07;;;2.90;;
43014;SDS011;28637;50.554;7.032;2023-07-09T12:15:56;5.47;;;2.70;;
43014;SDS011;28637;50.554;7.032;2023-07-09T12:20:57;5.72;;;3.17;;
43014;SDS011;28637;50.554;7.032;2023-07-09T12:26:01;4.25;;;2.72;;
43014;SDS011;28637;50.554;7.032;2023-07-09T12:31:03;5.80;;;2.80;;
43014;SDS011;28637;50.554;7.032;2023-07-09T12:36:04;4.65;;;2.88;;
43014;SDS011;28637;50.554;7.032;2023-07-09T12:41:06;5.82;;;3.00;;
43014;SDS011;28637;50.554;7.032;2023-07-09T12:46:20;5.68;;;2.72;;
43014;SDS011;28637;50.554;7.032;2023-07-09T12:51:22;6.38;;;3.08;;
43014;SDS011;28637;50.554;7.032;2023-07-09T12:56:24;5.22;;;2.70;;
43014;SDS011;28637;50.554;7.032;2023-07-09T13:01:25;5.07;;;3.10;;
43014;SDS011;28637;50.554;7.032;2023-07-09T13:06:29;7.03;;;3.15;;
43014;SDS011;28637;50.554;7.032;2023-07-09T13:11:35;5.00;;;3.08;;
43014;SDS011;28637;50.554;7.032;2023-07-09T13:16:38;5.72;;;2.90;;
43014;SDS011;28637;50.554;7.032;2023-07-09T13:21:40;5.00;;;3.38;;
43014;SDS011;28637;50.554;7.032;2023-07-09T13:26:42;8.02;;;2.88;;
43014;SDS011;28637;50.554;7.032;2023-07-09T13:31:46;3.75;;;3.05;;
43014;SDS011;28637;50.554;7.032;2023-07-09T13:36:48;6.07;;;3.10;;
43014;SDS011;28637;50.554;7.032;2023-07-09T13:41:50;4.05;;;3.10;;
43014;SDS011;28637;50.554;7.032;2023-07-09T13:46:55;3.83;;;2.90;;
43014;SDS011;28637;50.554;7.032;2023-07-09T13:51:57;6.45;;;3.50;;
43014;SDS011;28637;50.554;7.032;2023-07-09T13:56:59;4.55;;;3.20;;
43014;SDS011;28637;50.554;7.032;2023-07-09T14:01:59;5.60;;;3.15;;
43014;SDS011;28637;50.554;7.032;2023-07-09T14:07:01;4.72;;;3.20;;
43014;SDS011;28637;50.554;7.032;2023-07-09T14:12:02;5.85;;;3.35;;
43014;SDS011;28637;50.554;7.032;2023-07-09T14:17:03;7.75;;;3.42;;
43014;SDS011;28637;50.554;7.032;2023-07-09T14:22:07;4.90;;;3.22;;
43014;SDS011;28637;50.554;7.032;2023-07-09T14:27:26;5.38;;;3.30;;
43014;SDS011;28637;50.554;7.032;2023-07-09T14:37:34;13.02;;;3.60;;
43014;SDS011;28637;50.554;7.032;2023-07-09T14:42:36;11.20;;;3.67;;
43014;SDS011;28637;50.554;7.032;2023-07-09T14:47:40;6.00;;;2.80;;
43014;SDS011;28637;50.554;7.032;2023-07-09T14:52:42;22.15;;;3.47;;
43014;SDS011;28637;50.554;7.032;2023-07-09T14:57:44;11.07;;;3.03;;
43014;SDS011;28637;50.554;7.032;2023-07-09T15:02:45;3.53;;;2.50;;
43014;SDS011;28637;50.554;7.032;2023-07-09T15:07:49;4.68;;;2.65;;
43014;SDS011;28637;50.554;7.032;2023-07-09T15:12:51;4.15;;;2.85;;
43014;SDS011;28637;50.554;7.032;2023-07-09T15:22:53;4.97;;;2.60;;
43014;SDS011;28637;50.554;7.032;2023-07-09T15:27:56;3.60;;;2.67;;
43014;SDS011;28637;50.554;7.032;2023-07-09T15:43:03;6.57;;;2.97;;
43014;SDS011;28637;50.554;7.032;2023-07-09T15:48:09;7.22;;;3.28;;
43014;SDS011;28637;50.554;7.032;2023-07-09T15:53:22;5.25;;;3.28;;
43014;SDS011;28637;50.554;7.032;2023-07-09T15:58:38;6.25;;;2.88;;
43014;SDS011;28637;50.554;7.032;2023-07-09T16:03:43;7.38;;;2.83;;
43014;SDS011;28637;50.554;7.032;2023-07-09T16:08:47;5.50;;;2.80;;
43014;SDS011;28637;50.554;7.032;2023-07-09T16:13:48;8.25;;;3.30;;
43014;SDS011;28637;50.554;7.032;2023-07-09T16:18:50;4.28;;;3.28;;
43014;SDS011;28637;50.554;7.032;2023-07-09T16:23:51;6.13;;;3.25;;
43014;SDS011;28637;50.554;7.032;2023-07-09T16:28:52;7.18;;;3.70;;
43014;SDS011;28637;50.554;7.032;2023-07-09T16:33:53;6.53;;;3.70;;
43014;SDS011;28637;50.554;7.032;2023-07-09T16:38:54;6.53;;;4.13;;
43014;SDS011;28637;50.554;7.032;2023-07-09T16:43:55;8.48;;;4.35;;
43014;SDS011;28637;50.554;7.032;2023-07-09T16:48:55;7.38;;;4.65;;
43014;SDS011;28637;50.554;7.032;2023-07-09T16:53:56;9.68;;;5.07;;
43014;SDS011;28637;50.554;7.032;2023-07-09T16:59:00;7.75;;;4.80;;
43014;SDS011;28637;50.554;7.032;2023-07-09T17:04:00;7.75;;;5.03;;
43014;SDS011;28637;50.554;7.032;2023-07-09T17:09:04;9.82;;;5.50;;
43014;SDS011;28637;50.554;7.032;2023-07-09T17:19:08;10.20;;;6.70;;
43014;SDS011;28637;50.554;7.032;2023-07-09T17:24:17;11.20;;;7.43;;
43014;SDS011;28637;50.554;7.032;2023-07-09T17:29:23;9.85;;;6.82;;
43014;SDS011;28637;50.554;7.032;2023-07-09T17:34:24;9.73;;;6.60;;
43014;SDS011;28637;50.554;7.032;2023-07-09T17:44:26;11.07;;;7.07;;
43014;SDS011;28637;50.554;7.032;2023-07-09T17:54:30;9.88;;;7.18;;
43014;SDS011;28637;50.554;7.032;2023-07-09T18:04:36;10.30;;;7.03;;
43014;SDS011;28637;50.554;7.032;2023-07-09T18:09:36;11.98;;;7.22;;
43014;SDS011;28637;50.554;7.032;2023-07-09T18:19:40;13.25;;;7.63;;
43014;SDS011;28637;50.554;7.032;2023-07-09T18:24:41;9.27;;;7.30;;
43014;SDS011;28637;50.554;7.032;2023-07-09T18:29:43;9.85;;;7.47;;
43014;SDS011;28637;50.554;7.032;2023-07-09T18:34:46;12.27;;;7.97;;
43014;SDS011;28637;50.554;7.032;2023-07-09T18:39:48;15.07;;;7.50;;
43014;SDS011;28637;50.554;7.032;2023-07-09T18:44:49;9.82;;;7.10;;
43014;SDS011;28637;50.554;7.032;2023-07-09T18:49:50;12.93;;;7.55;;
43014;SDS011;28637;50.554;7.032;2023-07-09T18:54:54;16.00;;;7.72;;
43014;SDS011;28637;50.554;7.032;2023-07-09T18:59:55;11.30;;;7.18;;
43014;SDS011;28637;50.554;7.032;2023-07-09T19:04:55;12.98;;;7.13;;
43014;SDS011;28637;50.554;7.032;2023-07-09T19:09:57;11.35;;;6.65;;
43014;SDS011;28637;50.554;7.032;2023-07-09T19:15:00;10.27;;;7.28;;
43014;SDS011;28637;50.554;7.032;2023-07-09T19:20:00;11.35;;;6.65;;
43014;SDS011;28637;50.554;7.032;2023-07-09T19:25:01;12.23;;;6.63;;
43014;SDS011;28637;50.554;7.032;2023-07-09T19:30:02;9.52;;;6.63;;
43014;SDS011;28637;50.554;7.032;2023-07-09T19:35:03;10.45;;;6.28;;
43014;SDS011;28637;50.554;7.032;2023-07-09T19:45:15;13.32;;;7.03;;
43014;SDS011;28637;50.554;7.032;2023-07-09T19:50:23;11.65;;;6.82;;
43014;SDS011;28637;50.554;7.032;2023-07-09T19:55:27;13.70;;;6.78;;
43014;SDS011;28637;50.554;7.032;2023-07-09T20:00:30;12.73;;;7.00;;
43014;SDS011;28637;50.554;7.032;2023-07-09T20:05:30;12.23;;;7.18;;
43014;SDS011;28637;50.554;7.032;2023-07-09T20:10:31;11.57;;;7.30;;
43014;SDS011;28637;50.554;7.032;2023-07-09T20:15:32;10.43;;;7.40;;
43014;SDS011;28637;50.554;7.032;2023-07-09T20:20:33;15.03;;;7.13;;
43014;SDS011;28637;50.554;7.032;2023-07-09T20:25:34;18.70;;;7.70;;
43014;SDS011;28637;50.554;7.032;2023-07-09T20:30:35;12.52;;;7.40;;
43014;SDS011;28637;50.554;7.032;2023-07-09T20:35:36;12.27;;;7.53;;
43014;SDS011;28637;50.554;7.032;2023-07-09T20:40:37;14.00;;;7.65;;
43014;SDS011;28637;50.554;7.032;2023-07-09T20:45:37;11.90;;;6.90;;
43014;SDS011;28637;50.554;7.032;2023-07-09T20:50:38;12.40;;;7.17;;
43014;SDS011;28637;50.554;7.032;2023-07-09T20:55:42;10.63;;;7.38;;
43014;SDS011;28637;50.554;7.032;2023-07-09T21:00:44;15.85;;;7.70;;
43014;SDS011;28637;50.554;7.032;2023-07-09T21:05:46;8.23;;;6.82;;
43014;SDS011;28637;50.554;7.032;2023-07-09T21:10:49;17.85;;;7.30;;
43014;SDS011;28637;50.554;7.032;2023-07-09T21:15:51;10.95;;;6.95;;
43014;SDS011;28637;50.554;7.032;2023-07-09T21:20:53;16.10;;;7.22;;
43014;SDS011;28637;50.554;7.032;2023-07-09T21:25:54;13.10;;;7.17;;
43014;SDS011;28637;50.554;7.032;2023-07-09T21:30:54;11.17;;;6.47;;
43014;SDS011;28637;50.554;7.032;2023-07-09T21:35:55;10.68;;;6.78;;
43014;SDS011;28637;50.554;7.032;2023-07-09T21:40:58;12.15;;;6.93;;
43014;SDS011;28637;50.554;7.032;2023-07-09T21:45:59;8.45;;;6.22;;
43014;SDS011;28637;50.554;7.032;2023-07-09T21:51:00;11.43;;;6.37;;
43014;SDS011;28637;50.554;7.032;2023-07-09T21:56:00;12.37;;;6.43;;
43014;SDS011;28637;50.554;7.032;2023-07-09T22:01:01;12.45;;;6.80;;
43014;SDS011;28637;50.554;7.032;2023-07-09T22:06:02;13.17;;;6.17;;
43014;SDS011;28637;50.554;7.032;2023-07-09T22:11:12;14.23;;;7.00;;
43014;SDS011;28637;50.554;7.032;2023-07-09T22:16:26;16.27;;;7.00;;
43014;SDS011;28637;50.554;7.032;2023-07-09T22:21:27;12.43;;;7.13;;
43014;SDS011;28637;50.554;7.032;2023-07-09T22:26:33;16.77;;;7.03;;
43014;SDS011;28637;50.554;7.032;2023-07-09T22:31:35;16.05;;;6.82;;
43014;SDS011;28637;50.554;7.032;2023-07-09T22:36:37;13.77;;;6.93;;
43014;SDS011;28637;50.554;7.032;2023-07-09T22:41:37;13.40;;;7.10;;
43014;SDS011;28637;50.554;7.032;2023-07-09T22:46:41;10.77;;;7.00;;
43014;SDS011;28637;50.554;7.032;2023-07-09T22:51:43;12.98;;;6.63;;
43014;SDS011;28637;50.554;7.032;2023-07-09T22:56:43;12.30;;;6.97;;
43014;SDS011;28637;50.554;7.032;2023-07-09T23:01:45;10.33;;;7.20;;
43014;SDS011;28637;50.554;7.032;2023-07-09T23:06:46;15.00;;;7.57;;
43014;SDS011;28637;50.554;7.032;2023-07-09T23:16:48;10.77;;;6.50;;
43014;SDS011;28637;50.554;7.032;2023-07-09T23:21:49;19.17;;;6.97;;
43014;SDS011;28637;50.554;7.032;2023-07-09T23:26:51;15.18;;;6.68;;
43014;SDS011;28637;50.554;7.032;2023-07-09T23:31:53;22.73;;;7.07;;
43014;SDS011;28637;50.554;7.032;2023-07-09T23:36:54;26.70;;;7.07;;
43014;SDS011;28637;50.554;7.032;2023-07-09T23:41:54;22.80;;;7.07;;
43014;SDS011;28637;50.554;7.032;2023-07-09T23:46:58;26.50;;;7.53;;
43014;SDS011;28637;50.554;7.032;2023-07-09T23:51:59;36.13;;;7.93;;
43014;SDS011;28637;50.554;7.032;2023-07-09T23:56:59;36.70;;;7.67;;
